SBI1136 UWUU-UUDD
Flight info
| Callsign | SBI1136 |
|---|---|
| Flight time | N/A |
| Altitude | 36000 |
| Route | TILMU N985 ORTIM L158 APTAR T787 URAGO |
| Aircraft | B738/M-SDE2E3FGHIRWXY/LB1 |
Departure
| Time | 2026-04-25 07:39 |
|---|---|
| Airport | Ufa International Airport (UWUU) |
Arrival
| Time | N/A |
|---|---|
| Airport | Domodedovo International Airport (UUDD) |
| Time | Latitude | Longitude | Altitude | Speed | Heading |
|---|---|---|---|---|---|
| 2026-04-25 07:12 | 54.56509 | 55.88306 | 389 ft | 0 kts | 61° |
| 2026-04-25 07:25 | 54.56507 | 55.88300 | 390 ft | 4 kts | 61° |
| 2026-04-25 07:26 | 54.56494 | 55.88260 | 389 ft | 4 kts | 62° |
| 2026-04-25 07:26 | 54.56482 | 55.88219 | 389 ft | 4 kts | 65° |
| 2026-04-25 07:26 | 54.56474 | 55.88186 | 389 ft | 2 kts | 81° |
| 2026-04-25 07:26 | 54.56474 | 55.88166 | 389 ft | 2 kts | 113° |
| 2026-04-25 07:27 | 54.56480 | 55.88150 | 389 ft | 2 kts | 142° |
| 2026-04-25 07:27 | 54.56489 | 55.88139 | 389 ft | 2 kts | 149° |
| 2026-04-25 07:27 | 54.56496 | 55.88133 | 389 ft | 0 kts | 150° |
| 2026-04-25 07:29 | 54.56495 | 55.88134 | 389 ft | 1 kts | 150° |
| 2026-04-25 07:29 | 54.56482 | 55.88146 | 389 ft | 3 kts | 150° |
| 2026-04-25 07:29 | 54.56452 | 55.88167 | 389 ft | 6 kts | 168° |
| 2026-04-25 07:29 | 54.56416 | 55.88141 | 389 ft | 6 kts | 229° |
| 2026-04-25 07:30 | 54.56393 | 55.88074 | 388 ft | 7 kts | 240° |
| 2026-04-25 07:30 | 54.56367 | 55.87997 | 388 ft | 8 kts | 240° |
| 2026-04-25 07:30 | 54.56340 | 55.87916 | 388 ft | 8 kts | 240° |
| 2026-04-25 07:30 | 54.56315 | 55.87838 | 389 ft | 8 kts | 240° |
| 2026-04-25 07:31 | 54.56284 | 55.87745 | 388 ft | 11 kts | 240° |
| 2026-04-25 07:31 | 54.56243 | 55.87623 | 388 ft | 12 kts | 240° |
| 2026-04-25 07:31 | 54.56201 | 55.87492 | 389 ft | 12 kts | 240° |
| 2026-04-25 07:31 | 54.56159 | 55.87363 | 392 ft | 12 kts | 240° |
| 2026-04-25 07:32 | 54.56118 | 55.87238 | 389 ft | 12 kts | 240° |
| 2026-04-25 07:32 | 54.56078 | 55.87117 | 398 ft | 11 kts | 240° |
| 2026-04-25 07:32 | 54.56039 | 55.86999 | 402 ft | 11 kts | 240° |
| 2026-04-25 07:32 | 54.56001 | 55.86884 | 406 ft | 11 kts | 240° |
| 2026-04-25 07:33 | 54.55964 | 55.86772 | 409 ft | 11 kts | 240° |
| 2026-04-25 07:33 | 54.55929 | 55.86663 | 411 ft | 10 kts | 240° |
| 2026-04-25 07:33 | 54.55894 | 55.86558 | 412 ft | 10 kts | 240° |
| 2026-04-25 07:33 | 54.55862 | 55.86460 | 413 ft | 9 kts | 240° |
| 2026-04-25 07:34 | 54.55851 | 55.86348 | 412 ft | 11 kts | 309° |
| 2026-04-25 07:34 | 54.55922 | 55.86279 | 413 ft | 12 kts | 331° |
| 2026-04-25 07:34 | 54.55998 | 55.86205 | 411 ft | 14 kts | 330° |
| 2026-04-25 07:34 | 54.56094 | 55.86113 | 410 ft | 18 kts | 331° |
| 2026-04-25 07:35 | 54.56217 | 55.85995 | 413 ft | 23 kts | 330° |
| 2026-04-25 07:35 | 54.56351 | 55.85865 | 413 ft | 21 kts | 330° |
| 2026-04-25 07:35 | 54.56490 | 55.85732 | 410 ft | 23 kts | 331° |
| 2026-04-25 07:35 | 54.56615 | 55.85611 | 410 ft | 20 kts | 330° |
| 2026-04-25 07:36 | 54.56733 | 55.85497 | 408 ft | 19 kts | 331° |
| 2026-04-25 07:36 | 54.56849 | 55.85387 | 414 ft | 19 kts | 330° |
| 2026-04-25 07:36 | 54.56961 | 55.85277 | 412 ft | 19 kts | 330° |
| 2026-04-25 07:36 | 54.57078 | 55.85163 | 412 ft | 18 kts | 330° |
| 2026-04-25 07:37 | 54.57179 | 55.85087 | 411 ft | 11 kts | 352° |
| 2026-04-25 07:37 | 54.57256 | 55.85075 | 412 ft | 11 kts | 347° |
| 2026-04-25 07:37 | 54.57300 | 55.85006 | 413 ft | 7 kts | 277° |
| 2026-04-25 07:37 | 54.57258 | 55.84992 | 413 ft | 8 kts | 155° |
| 2026-04-25 07:38 | 54.57219 | 55.85029 | 412 ft | 6 kts | 151° |
| 2026-04-25 07:38 | 54.57090 | 55.85153 | 412 ft | 53 kts | 150° |
| 2026-04-25 07:38 | 54.56564 | 55.85661 | 409 ft | 119 kts | 150° |
| 2026-04-25 07:38 | 54.55689 | 55.86484 | 556 ft | 159 kts | 153° |
| 2026-04-25 07:39 | 54.54735 | 55.87446 | 1244 ft | 158 kts | 155° |
| 2026-04-25 07:39 | 54.53800 | 55.88382 | 1982 ft | 167 kts | 152° |
| 2026-04-25 07:39 | 54.53103 | 55.90331 | 2249 ft | 218 kts | 105° |
| 2026-04-25 07:39 | 54.53384 | 55.93051 | 2544 ft | 253 kts | 65° |
| 2026-04-25 07:40 | 54.54446 | 55.95539 | 3162 ft | 263 kts | 51° |
| 2026-04-25 07:40 | 54.55662 | 55.97922 | 3970 ft | 266 kts | 51° |
| 2026-04-25 07:40 | 54.56869 | 56.00348 | 4837 ft | 267 kts | 52° |
| 2026-04-25 07:40 | 54.58057 | 56.02816 | 5704 ft | 268 kts | 53° |
| 2026-04-25 07:41 | 54.59239 | 56.05308 | 6511 ft | 270 kts | 51° |
| 2026-04-25 07:41 | 54.60726 | 56.07335 | 7192 ft | 277 kts | 20° |
| 2026-04-25 07:41 | 54.62601 | 56.07875 | 7833 ft | 278 kts | 348° |
| 2026-04-25 07:41 | 54.64433 | 56.06767 | 8213 ft | 284 kts | 324° |
| 2026-04-25 07:42 | 54.66169 | 56.05070 | 8971 ft | 288 kts | 323° |
| 2026-04-25 07:42 | 54.67914 | 56.03343 | 9818 ft | 290 kts | 323° |
| 2026-04-25 07:42 | 54.69718 | 56.01561 | 10199 ft | 310 kts | 324° |
| 2026-04-25 07:42 | 54.71666 | 55.99656 | 10393 ft | 334 kts | 324° |
| 2026-04-25 07:43 | 54.73764 | 55.97623 | 10645 ft | 354 kts | 325° |
| 2026-04-25 07:43 | 54.75922 | 55.95476 | 11232 ft | 359 kts | 319° |
| 2026-04-25 07:43 | 54.77631 | 55.92454 | 11996 ft | 347 kts | 296° |
| 2026-04-25 07:43 | 54.78582 | 55.88691 | 12795 ft | 339 kts | 278° |
| 2026-04-25 07:44 | 54.78873 | 55.84671 | 13543 ft | 337 kts | 269° |
| 2026-04-25 07:44 | 54.78993 | 55.80594 | 14196 ft | 340 kts | 268° |
| 2026-04-25 07:44 | 54.79079 | 55.76471 | 14863 ft | 343 kts | 267° |
| 2026-04-25 07:44 | 54.79161 | 55.72324 | 15533 ft | 346 kts | 267° |
| 2026-04-25 07:45 | 54.79249 | 55.68132 | 16205 ft | 350 kts | 267° |
| 2026-04-25 07:45 | 54.79344 | 55.63900 | 16849 ft | 354 kts | 267° |
| 2026-04-25 07:45 | 54.79444 | 55.59617 | 17477 ft | 357 kts | 267° |
| 2026-04-25 07:45 | 54.79550 | 55.55290 | 18074 ft | 361 kts | 267° |
| 2026-04-25 07:46 | 54.79657 | 55.50931 | 18648 ft | 363 kts | 267° |
| 2026-04-25 07:46 | 54.79766 | 55.46548 | 19261 ft | 365 kts | 266° |
| 2026-04-25 07:46 | 54.79875 | 55.42155 | 19859 ft | 366 kts | 266° |
| 2026-04-25 07:46 | 54.79983 | 55.37731 | 20455 ft | 368 kts | 266° |
| 2026-04-25 07:47 | 54.80088 | 55.33352 | 20991 ft | 370 kts | 266° |
| 2026-04-25 07:47 | 54.80193 | 55.28885 | 21541 ft | 372 kts | 265° |
| 2026-04-25 07:47 | 54.80298 | 55.24391 | 22072 ft | 374 kts | 265° |
| 2026-04-25 07:47 | 54.80401 | 55.19874 | 22591 ft | 377 kts | 265° |
| 2026-04-25 07:48 | 54.80503 | 55.15318 | 23110 ft | 378 kts | 265° |
| 2026-04-25 07:48 | 54.80605 | 55.10745 | 23517 ft | 381 kts | 265° |
| 2026-04-25 07:48 | 54.80705 | 55.06139 | 23868 ft | 385 kts | 265° |
| 2026-04-25 07:48 | 54.80804 | 55.01473 | 24194 ft | 388 kts | 265° |
| 2026-04-25 07:49 | 54.80902 | 54.96772 | 24532 ft | 392 kts | 265° |
| 2026-04-25 07:49 | 54.81000 | 54.92031 | 24879 ft | 395 kts | 265° |
| 2026-04-25 07:49 | 54.81097 | 54.87256 | 25227 ft | 398 kts | 265° |
| 2026-04-25 07:49 | 54.81193 | 54.82445 | 25549 ft | 401 kts | 265° |
| 2026-04-25 07:50 | 54.81288 | 54.77597 | 25876 ft | 404 kts | 265° |
| 2026-04-25 07:50 | 54.81381 | 54.72703 | 26189 ft | 407 kts | 265° |
| 2026-04-25 07:50 | 54.81474 | 54.67779 | 26491 ft | 410 kts | 266° |
| 2026-04-25 07:50 | 54.81564 | 54.62826 | 26788 ft | 413 kts | 266° |
| 2026-04-25 07:51 | 54.81653 | 54.57896 | 27064 ft | 416 kts | 266° |
| 2026-04-25 07:51 | 54.81741 | 54.52851 | 27353 ft | 419 kts | 266° |
| 2026-04-25 07:51 | 54.81828 | 54.47773 | 27656 ft | 422 kts | 266° |
| 2026-04-25 07:51 | 54.81914 | 54.42679 | 27939 ft | 424 kts | 266° |
| 2026-04-25 07:52 | 54.81998 | 54.37547 | 28205 ft | 427 kts | 266° |
| 2026-04-25 07:52 | 54.82081 | 54.32386 | 28445 ft | 430 kts | 266° |
| 2026-04-25 07:52 | 54.82163 | 54.27184 | 28723 ft | 432 kts | 266° |
| 2026-04-25 07:52 | 54.82241 | 54.21973 | 29079 ft | 433 kts | 266° |
| 2026-04-25 07:53 | 54.82434 | 54.16756 | 29483 ft | 437 kts | 275° |
| 2026-04-25 07:53 | 54.83176 | 54.11611 | 29811 ft | 441 kts | 280° |
| 2026-04-25 07:53 | 54.84008 | 54.06476 | 30063 ft | 442 kts | 280° |
| 2026-04-25 07:53 | 54.84841 | 54.01342 | 30303 ft | 443 kts | 280° |
| 2026-04-25 07:54 | 54.85661 | 53.96185 | 30574 ft | 444 kts | 280° |
| 2026-04-25 07:54 | 54.86467 | 53.91013 | 30861 ft | 443 kts | 279° |
| 2026-04-25 07:54 | 54.87262 | 53.85838 | 31142 ft | 444 kts | 279° |
| 2026-04-25 07:54 | 54.88050 | 53.80652 | 31392 ft | 444 kts | 279° |
| 2026-04-25 07:55 | 54.88838 | 53.75456 | 31637 ft | 445 kts | 279° |
| 2026-04-25 07:55 | 54.89624 | 53.70262 | 31912 ft | 445 kts | 279° |
| 2026-04-25 07:55 | 54.90409 | 53.65056 | 32162 ft | 445 kts | 280° |
| 2026-04-25 07:55 | 54.91190 | 53.59841 | 32400 ft | 446 kts | 279° |
| 2026-04-25 07:56 | 54.91966 | 53.54624 | 32655 ft | 446 kts | 279° |
| 2026-04-25 07:56 | 54.92741 | 53.49395 | 32904 ft | 447 kts | 280° |
| 2026-04-25 07:56 | 54.93514 | 53.44169 | 33144 ft | 447 kts | 280° |
| 2026-04-25 07:56 | 54.94288 | 53.38927 | 33373 ft | 448 kts | 280° |
| 2026-04-25 07:57 | 54.95062 | 53.33680 | 33617 ft | 448 kts | 280° |
| 2026-04-25 07:57 | 54.95571 | 53.30214 | 33775 ft | 447 kts | 280° |
| 2026-04-25 07:57 | 54.96590 | 53.23258 | 34048 ft | 448 kts | 280° |
| 2026-04-25 07:57 | 54.97360 | 53.18006 | 34234 ft | 448 kts | 280° |
| 2026-04-25 07:58 | 54.98128 | 53.12760 | 34430 ft | 448 kts | 280° |
| 2026-04-25 07:58 | 54.98896 | 53.07510 | 34647 ft | 447 kts | 280° |
| 2026-04-25 07:58 | 54.99413 | 53.03968 | 34802 ft | 446 kts | 280° |
| 2026-04-25 07:58 | 55.00174 | 52.98744 | 35021 ft | 445 kts | 280° |
| 2026-04-25 07:59 | 55.00933 | 52.93504 | 35196 ft | 445 kts | 280° |
| 2026-04-25 07:59 | 55.01680 | 52.88341 | 35373 ft | 445 kts | 280° |
| 2026-04-25 07:59 | 55.02432 | 52.83130 | 35488 ft | 444 kts | 280° |
| 2026-04-25 07:59 | 55.03183 | 52.77894 | 35483 ft | 446 kts | 280° |
| 2026-04-25 08:00 | 55.04680 | 52.67362 | 35495 ft | 448 kts | 280° |
| 2026-04-25 08:00 | 55.06160 | 52.56827 | 35493 ft | 447 kts | 280° |
| 2026-04-25 08:01 | 55.07635 | 52.46271 | 35474 ft | 447 kts | 280° |
| 2026-04-25 08:01 | 55.09104 | 52.35716 | 35474 ft | 447 kts | 280° |
| 2026-04-25 08:02 | 55.10562 | 52.25168 | 35466 ft | 446 kts | 280° |
| 2026-04-25 08:02 | 55.12006 | 52.14633 | 35464 ft | 445 kts | 280° |
| 2026-04-25 08:03 | 55.13436 | 52.04132 | 35462 ft | 444 kts | 280° |
| 2026-04-25 08:03 | 55.14856 | 51.93634 | 35460 ft | 443 kts | 280° |
| 2026-04-25 08:04 | 55.16263 | 51.83162 | 35454 ft | 442 kts | 280° |
| 2026-04-25 08:04 | 55.17660 | 51.72688 | 35452 ft | 442 kts | 280° |
| 2026-04-25 08:05 | 55.19038 | 51.62280 | 35446 ft | 442 kts | 280° |
| 2026-04-25 08:05 | 55.20418 | 51.51780 | 35447 ft | 443 kts | 280° |
| 2026-04-25 08:06 | 55.21793 | 51.41246 | 35440 ft | 444 kts | 280° |
| 2026-04-25 08:06 | 55.23162 | 51.30694 | 35437 ft | 445 kts | 280° |
| 2026-04-25 08:07 | 55.24526 | 51.20100 | 35439 ft | 446 kts | 280° |
| 2026-04-25 08:07 | 55.25887 | 51.09461 | 35433 ft | 448 kts | 280° |
| 2026-04-25 08:08 | 55.27235 | 50.98781 | 35432 ft | 449 kts | 280° |
| 2026-04-25 08:08 | 55.28499 | 50.88059 | 35427 ft | 449 kts | 279° |
| 2026-04-25 08:09 | 55.29730 | 50.77371 | 35423 ft | 449 kts | 279° |
| 2026-04-25 08:09 | 55.30968 | 50.66618 | 35425 ft | 449 kts | 279° |
| 2026-04-25 08:10 | 55.32204 | 50.55869 | 35421 ft | 449 kts | 279° |
| 2026-04-25 08:10 | 55.33430 | 50.45122 | 35416 ft | 449 kts | 279° |
| 2026-04-25 08:11 | 55.34645 | 50.34372 | 35417 ft | 448 kts | 279° |
| 2026-04-25 08:11 | 55.35850 | 50.23637 | 35413 ft | 448 kts | 279° |
| 2026-04-25 08:12 | 55.37045 | 50.12901 | 35411 ft | 447 kts | 279° |
| 2026-04-25 08:12 | 55.38223 | 50.02247 | 35413 ft | 446 kts | 279° |
| 2026-04-25 08:13 | 55.39171 | 49.91468 | 35420 ft | 445 kts | 274° |
| 2026-04-25 08:14 | 55.39899 | 49.75178 | 35415 ft | 445 kts | 274° |
| 2026-04-25 08:14 | 55.40393 | 49.64317 | 35420 ft | 445 kts | 274° |
| 2026-04-25 08:15 | 55.40909 | 49.53443 | 35431 ft | 446 kts | 274° |
| 2026-04-25 08:15 | 55.41421 | 49.42548 | 35435 ft | 447 kts | 274° |
| 2026-04-25 08:16 | 55.41916 | 49.31639 | 35437 ft | 448 kts | 274° |
| 2026-04-25 08:16 | 55.42402 | 49.20687 | 35441 ft | 450 kts | 274° |
| 2026-04-25 08:17 | 55.42881 | 49.09759 | 35431 ft | 450 kts | 274° |
| 2026-04-25 08:17 | 55.43357 | 48.98692 | 35434 ft | 450 kts | 274° |
| 2026-04-25 08:18 | 55.43818 | 48.87781 | 35433 ft | 449 kts | 274° |
| 2026-04-25 08:18 | 55.44272 | 48.76804 | 35432 ft | 449 kts | 274° |
| 2026-04-25 08:19 | 55.44716 | 48.65846 | 35431 ft | 448 kts | 274° |
| 2026-04-25 08:19 | 55.45150 | 48.54904 | 35435 ft | 447 kts | 274° |
| 2026-04-25 08:20 | 55.45569 | 48.43978 | 35439 ft | 447 kts | 274° |
| 2026-04-25 08:20 | 55.45978 | 48.33071 | 35441 ft | 446 kts | 274° |
| 2026-04-25 08:21 | 55.46380 | 48.22179 | 35448 ft | 445 kts | 274° |
| 2026-04-25 08:21 | 55.46773 | 48.11301 | 35455 ft | 445 kts | 274° |
| 2026-04-25 08:22 | 55.47157 | 48.00423 | 35456 ft | 444 kts | 274° |
| 2026-04-25 08:22 | 55.47530 | 47.89552 | 35453 ft | 444 kts | 274° |
| 2026-04-25 08:23 | 55.47894 | 47.78685 | 35459 ft | 444 kts | 274° |
| 2026-04-25 08:23 | 55.48246 | 47.67890 | 35470 ft | 444 kts | 274° |
| 2026-04-25 08:24 | 55.48591 | 47.57017 | 35470 ft | 444 kts | 274° |
| 2026-04-25 08:24 | 55.48927 | 47.46151 | 35476 ft | 444 kts | 274° |
| 2026-04-25 08:25 | 55.49254 | 47.35250 | 35485 ft | 445 kts | 274° |
| 2026-04-25 08:25 | 55.49573 | 47.24355 | 35484 ft | 445 kts | 274° |
| 2026-04-25 08:26 | 55.49882 | 47.13422 | 35484 ft | 446 kts | 274° |
| 2026-04-25 08:26 | 55.50188 | 47.02495 | 35491 ft | 446 kts | 274° |
| 2026-04-25 08:27 | 55.50493 | 46.91552 | 35490 ft | 447 kts | 274° |
| 2026-04-25 08:27 | 55.50790 | 46.80601 | 35499 ft | 447 kts | 274° |
| 2026-04-25 08:28 | 55.51078 | 46.69649 | 35501 ft | 447 kts | 274° |
| 2026-04-25 08:28 | 55.51357 | 46.58694 | 35503 ft | 447 kts | 274° |
| 2026-04-25 08:29 | 55.51627 | 46.47745 | 35501 ft | 447 kts | 274° |